sensor_id;sensor_type;location;lat;lon;timestamp;temperature;humidity
18797;DHT22;9526;52.612;13.300;2022-07-29T00:00:32;15.30;99.90
18797;DHT22;9526;52.612;13.300;2022-07-29T00:02:55;15.30;99.90
18797;DHT22;9526;52.612;13.300;2022-07-29T00:05:19;15.20;99.90
18797;DHT22;9526;52.612;13.300;2022-07-29T00:07:43;15.20;99.90
18797;DHT22;9526;52.612;13.300;2022-07-29T00:10:07;15.20;99.90
18797;DHT22;9526;52.612;13.300;2022-07-29T00:12:31;15.20;99.90
18797;DHT22;9526;52.612;13.300;2022-07-29T00:14:57;15.20;99.90
18797;DHT22;9526;52.612;13.300;2022-07-29T00:17:21;15.20;99.90
18797;DHT22;9526;52.612;13.300;2022-07-29T00:19:45;15.10;99.90
18797;DHT22;9526;52.612;13.300;2022-07-29T00:22:08;15.20;99.90
18797;DHT22;9526;52.612;13.300;2022-07-29T00:24:32;15.10;99.90
18797;DHT22;9526;52.612;13.300;2022-07-29T00:26:56;15.10;99.90
18797;DHT22;9526;52.612;13.300;2022-07-29T00:29:20;15.10;99.90
18797;DHT22;9526;52.612;13.300;2022-07-29T00:32:00;15.10;99.90
18797;DHT22;9526;52.612;13.300;2022-07-29T00:34:24;15.10;99.90
18797;DHT22;9526;52.612;13.300;2022-07-29T00:37:06;15.00;99.90
18797;DHT22;9526;52.612;13.300;2022-07-29T00:39:30;15.00;99.90
18797;DHT22;9526;52.612;13.300;2022-07-29T00:41:53;15.00;99.90
18797;DHT22;9526;52.612;13.300;2022-07-29T00:44:17;15.00;99.90
18797;DHT22;9526;52.612;13.300;2022-07-29T00:46:41;15.00;99.90
18797;DHT22;9526;52.612;13.300;2022-07-29T00:49:06;15.00;99.90
18797;DHT22;9526;52.612;13.300;2022-07-29T00:51:31;15.00;99.90
18797;DHT22;9526;52.612;13.300;2022-07-29T00:53:55;14.90;99.90
18797;DHT22;9526;52.612;13.300;2022-07-29T00:56:19;14.90;99.90
18797;DHT22;9526;52.612;13.300;2022-07-29T00:58:43;14.90;99.90
18797;DHT22;9526;52.612;13.300;2022-07-29T01:01:08;14.90;99.90
18797;DHT22;9526;52.612;13.300;2022-07-29T01:03:32;14.90;99.90
18797;DHT22;9526;52.612;13.300;2022-07-29T01:05:57;14.90;99.90
18797;DHT22;9526;52.612;13.300;2022-07-29T01:08:21;14.80;99.90
18797;DHT22;9526;52.612;13.300;2022-07-29T01:10:46;14.80;99.90
18797;DHT22;9526;52.612;13.300;2022-07-29T01:13:11;14.80;99.90
18797;DHT22;9526;52.612;13.300;2022-07-29T01:15:40;14.80;99.90
18797;DHT22;9526;52.612;13.300;2022-07-29T01:18:14;14.80;99.90
18797;DHT22;9526;52.612;13.300;2022-07-29T01:20:58;14.80;99.90
18797;DHT22;9526;52.612;13.300;2022-07-29T01:23:59;14.80;99.90
18797;DHT22;9526;52.612;13.300;2022-07-29T01:26:41;14.70;99.90
18797;DHT22;9526;52.612;13.300;2022-07-29T01:29:12;14.70;99.90
18797;DHT22;9526;52.612;13.300;2022-07-29T01:31:45;14.70;99.90
18797;DHT22;9526;52.612;13.300;2022-07-29T01:34:25;14.70;99.90
18797;DHT22;9526;52.612;13.300;2022-07-29T01:36:59;14.70;99.90
18797;DHT22;9526;52.612;13.300;2022-07-29T01:39:31;14.60;99.90
18797;DHT22;9526;52.612;13.300;2022-07-29T01:42:01;14.50;99.90
18797;DHT22;9526;52.612;13.300;2022-07-29T01:44:35;14.60;99.90
18797;DHT22;9526;52.612;13.300;2022-07-29T01:47:08;14.50;99.90
18797;DHT22;9526;52.612;13.300;2022-07-29T01:49:36;14.50;99.90
18797;DHT22;9526;52.612;13.300;2022-07-29T01:52:07;14.50;99.90
18797;DHT22;9526;52.612;13.300;2022-07-29T01:54:42;14.50;99.90
18797;DHT22;9526;52.612;13.300;2022-07-29T01:57:09;14.40;99.90
18797;DHT22;9526;52.612;13.300;2022-07-29T01:59:37;14.40;99.90
18797;DHT22;9526;52.612;13.300;2022-07-29T02:02:03;14.40;99.90
18797;DHT22;9526;52.612;13.300;2022-07-29T02:04:31;14.30;99.90
18797;DHT22;9526;52.612;13.300;2022-07-29T02:06:59;14.30;99.90
18797;DHT22;9526;52.612;13.300;2022-07-29T02:09:25;14.30;99.90
18797;DHT22;9526;52.612;13.300;2022-07-29T02:11:53;14.30;99.90
18797;DHT22;9526;52.612;13.300;2022-07-29T02:14:18;14.30;99.90
18797;DHT22;9526;52.612;13.300;2022-07-29T02:16:44;14.30;99.90
18797;DHT22;9526;52.612;13.300;2022-07-29T02:19:09;14.30;99.90
18797;DHT22;9526;52.612;13.300;2022-07-29T02:21:34;14.20;99.90
18797;DHT22;9526;52.612;13.300;2022-07-29T02:24:01;14.20;99.90
18797;DHT22;9526;52.612;13.300;2022-07-29T02:26:26;14.20;99.90
18797;DHT22;9526;52.612;13.300;2022-07-29T02:28:54;14.20;99.90
18797;DHT22;9526;52.612;13.300;2022-07-29T02:31:24;14.20;99.90
18797;DHT22;9526;52.612;13.300;2022-07-29T02:33:52;14.20;99.90
18797;DHT22;9526;52.612;13.300;2022-07-29T02:36:16;14.20;99.90
18797;DHT22;9526;52.612;13.300;2022-07-29T02:38:41;14.20;99.90
18797;DHT22;9526;52.612;13.300;2022-07-29T02:41:17;14.20;99.90
18797;DHT22;9526;52.612;13.300;2022-07-29T02:43:43;14.20;99.90
18797;DHT22;9526;52.612;13.300;2022-07-29T02:46:13;14.20;99.90
18797;DHT22;9526;52.612;13.300;2022-07-29T02:48:58;14.20;99.90
18797;DHT22;9526;52.612;13.300;2022-07-29T02:51:28;14.20;99.90
18797;DHT22;9526;52.612;13.300;2022-07-29T02:54:07;14.20;99.90
18797;DHT22;9526;52.612;13.300;2022-07-29T02:56:33;14.20;99.90
18797;DHT22;9526;52.612;13.300;2022-07-29T02:59:03;14.20;99.90
18797;DHT22;9526;52.612;13.300;2022-07-29T03:01:31;14.10;99.90
18797;DHT22;9526;52.612;13.300;2022-07-29T03:04:01;14.20;99.90
18797;DHT22;9526;52.612;13.300;2022-07-29T03:06:26;14.20;99.90
18797;DHT22;9526;52.612;13.300;2022-07-29T03:09:00;14.20;99.90
18797;DHT22;9526;52.612;13.300;2022-07-29T03:11:31;14.20;99.90
18797;DHT22;9526;52.612;13.300;2022-07-29T03:14:10;14.30;99.90
18797;DHT22;9526;52.612;13.300;2022-07-29T03:16:36;14.20;99.90
18797;DHT22;9526;52.612;13.300;2022-07-29T03:19:04;14.30;99.90
18797;DHT22;9526;52.612;13.300;2022-07-29T03:21:28;14.30;99.90
18797;DHT22;9526;52.612;13.300;2022-07-29T03:23:52;14.30;99.90
18797;DHT22;9526;52.612;13.300;2022-07-29T03:26:15;14.30;99.90
18797;DHT22;9526;52.612;13.300;2022-07-29T03:28:39;14.30;99.90
18797;DHT22;9526;52.612;13.300;2022-07-29T03:31:03;14.40;99.90
18797;DHT22;9526;52.612;13.300;2022-07-29T03:33:29;14.40;99.90
18797;DHT22;9526;52.612;13.300;2022-07-29T03:35:55;14.40;99.90
18797;DHT22;9526;52.612;13.300;2022-07-29T03:38:19;14.40;99.90
18797;DHT22;9526;52.612;13.300;2022-07-29T03:40:49;14.40;99.90
18797;DHT22;9526;52.612;13.300;2022-07-29T03:43:17;14.40;99.90
18797;DHT22;9526;52.612;13.300;2022-07-29T03:45:44;14.40;99.90
18797;DHT22;9526;52.612;13.300;2022-07-29T03:48:13;14.40;99.90
18797;DHT22;9526;52.612;13.300;2022-07-29T03:50:38;14.30;99.90
18797;DHT22;9526;52.612;13.300;2022-07-29T03:53:04;14.30;99.90
18797;DHT22;9526;52.612;13.300;2022-07-29T03:55:31;14.30;99.90
18797;DHT22;9526;52.612;13.300;2022-07-29T03:57:57;14.30;99.90
18797;DHT22;9526;52.612;13.300;2022-07-29T04:00:22;14.40;99.90
18797;DHT22;9526;52.612;13.300;2022-07-29T04:02:47;14.40;99.90
18797;DHT22;9526;52.612;13.300;2022-07-29T04:05:12;14.40;99.90
18797;DHT22;9526;52.612;13.300;2022-07-29T04:07:36;14.30;99.90
18797;DHT22;9526;52.612;13.300;2022-07-29T04:10:01;14.30;99.90
18797;DHT22;9526;52.612;13.300;2022-07-29T04:12:25;14.30;99.90
18797;DHT22;9526;52.612;13.300;2022-07-29T04:14:48;14.30;99.90
18797;DHT22;9526;52.612;13.300;2022-07-29T04:17:12;14.40;99.90
18797;DHT22;9526;52.612;13.300;2022-07-29T04:19:36;14.40;99.90
18797;DHT22;9526;52.612;13.300;2022-07-29T04:22:00;14.40;99.90
18797;DHT22;9526;52.612;13.300;2022-07-29T04:24:24;14.40;99.90
18797;DHT22;9526;52.612;13.300;2022-07-29T04:26:49;14.40;99.90
18797;DHT22;9526;52.612;13.300;2022-07-29T04:29:13;14.40;99.90
18797;DHT22;9526;52.612;13.300;2022-07-29T04:31:37;14.40;99.90
18797;DHT22;9526;52.612;13.300;2022-07-29T04:34:01;14.50;99.90
18797;DHT22;9526;52.612;13.300;2022-07-29T04:36:25;14.50;99.90
18797;DHT22;9526;52.612;13.300;2022-07-29T04:38:50;14.50;99.90
18797;DHT22;9526;52.612;13.300;2022-07-29T04:41:14;14.50;99.90
18797;DHT22;9526;52.612;13.300;2022-07-29T04:43:43;14.50;99.90
18797;DHT22;9526;52.612;13.300;2022-07-29T04:46:07;14.60;99.90
18797;DHT22;9526;52.612;13.300;2022-07-29T04:48:30;14.60;99.90
18797;DHT22;9526;52.612;13.300;2022-07-29T04:50:54;14.60;99.90
18797;DHT22;9526;52.612;13.300;2022-07-29T04:53:19;14.60;99.90
18797;DHT22;9526;52.612;13.300;2022-07-29T04:55:43;14.70;99.90
18797;DHT22;9526;52.612;13.300;2022-07-29T04:58:07;14.70;99.90
18797;DHT22;9526;52.612;13.300;2022-07-29T05:00:32;14.80;99.90
18797;DHT22;9526;52.612;13.300;2022-07-29T05:02:56;14.80;99.90
18797;DHT22;9526;52.612;13.300;2022-07-29T05:05:20;14.90;99.90
18797;DHT22;9526;52.612;13.300;2022-07-29T05:07:44;14.90;99.90
18797;DHT22;9526;52.612;13.300;2022-07-29T05:10:09;15.00;99.90
18797;DHT22;9526;52.612;13.300;2022-07-29T05:12:33;15.10;99.90
18797;DHT22;9526;52.612;13.300;2022-07-29T05:14:57;15.20;99.90
18797;DHT22;9526;52.612;13.300;2022-07-29T05:17:22;15.30;99.90
18797;DHT22;9526;52.612;13.300;2022-07-29T05:19:46;15.40;99.90
18797;DHT22;9526;52.612;13.300;2022-07-29T05:22:10;15.50;99.90
18797;DHT22;9526;52.612;13.300;2022-07-29T05:24:34;15.60;99.90
18797;DHT22;9526;52.612;13.300;2022-07-29T05:26:57;15.70;99.90
18797;DHT22;9526;52.612;13.300;2022-07-29T05:29:21;15.80;99.90
18797;DHT22;9526;52.612;13.300;2022-07-29T05:32:05;15.80;99.90
18797;DHT22;9526;52.612;13.300;2022-07-29T05:34:30;15.90;99.90
18797;DHT22;9526;52.612;13.300;2022-07-29T05:36:54;16.00;99.90
18797;DHT22;9526;52.612;13.300;2022-07-29T05:39:18;16.10;99.90
18797;DHT22;9526;52.612;13.300;2022-07-29T05:41:42;16.10;99.90
18797;DHT22;9526;52.612;13.300;2022-07-29T05:44:12;16.20;99.90
18797;DHT22;9526;52.612;13.300;2022-07-29T05:46:37;16.30;99.90
18797;DHT22;9526;52.612;13.300;2022-07-29T05:49:00;16.30;99.90
18797;DHT22;9526;52.612;13.300;2022-07-29T05:51:26;16.40;99.90
18797;DHT22;9526;52.612;13.300;2022-07-29T05:53:50;16.50;99.90
18797;DHT22;9526;52.612;13.300;2022-07-29T05:56:13;16.60;99.90
18797;DHT22;9526;52.612;13.300;2022-07-29T05:58:37;16.60;99.90
18797;DHT22;9526;52.612;13.300;2022-07-29T06:01:01;16.60;99.90
18797;DHT22;9526;52.612;13.300;2022-07-29T06:03:25;16.70;99.90
18797;DHT22;9526;52.612;13.300;2022-07-29T06:05:49;16.70;99.90
18797;DHT22;9526;52.612;13.300;2022-07-29T06:08:14;16.90;99.90
18797;DHT22;9526;52.612;13.300;2022-07-29T06:10:38;17.00;99.90
18797;DHT22;9526;52.612;13.300;2022-07-29T06:13:02;17.10;99.90
18797;DHT22;9526;52.612;13.300;2022-07-29T06:15:26;17.10;99.90
18797;DHT22;9526;52.612;13.300;2022-07-29T06:17:50;17.30;99.90
18797;DHT22;9526;52.612;13.300;2022-07-29T06:20:22;17.50;99.90
18797;DHT22;9526;52.612;13.300;2022-07-29T06:22:48;17.50;99.90
18797;DHT22;9526;52.612;13.300;2022-07-29T06:25:13;17.70;99.90
18797;DHT22;9526;52.612;13.300;2022-07-29T06:27:38;17.80;99.90
18797;DHT22;9526;52.612;13.300;2022-07-29T06:30:02;17.90;99.90
18797;DHT22;9526;52.612;13.300;2022-07-29T06:32:28;18.10;99.90
18797;DHT22;9526;52.612;13.300;2022-07-29T06:34:53;18.10;99.90
18797;DHT22;9526;52.612;13.300;2022-07-29T06:37:36;18.20;99.90
18797;DHT22;9526;52.612;13.300;2022-07-29T06:40:01;18.20;99.90
18797;DHT22;9526;52.612;13.300;2022-07-29T06:42:44;18.20;99.90
18797;DHT22;9526;52.612;13.300;2022-07-29T06:45:08;18.30;99.90
18797;DHT22;9526;52.612;13.300;2022-07-29T06:47:32;18.30;99.90
18797;DHT22;9526;52.612;13.300;2022-07-29T06:49:56;18.30;99.90
18797;DHT22;9526;52.612;13.300;2022-07-29T06:52:20;18.20;99.90
18797;DHT22;9526;52.612;13.300;2022-07-29T06:54:44;18.30;99.90
18797;DHT22;9526;52.612;13.300;2022-07-29T06:57:10;18.40;99.90
18797;DHT22;9526;52.612;13.300;2022-07-29T06:59:35;18.40;99.90
18797;DHT22;9526;52.612;13.300;2022-07-29T07:01:59;18.60;99.90
18797;DHT22;9526;52.612;13.300;2022-07-29T07:04:22;18.80;99.90
18797;DHT22;9526;52.612;13.300;2022-07-29T07:06:46;18.90;99.90
18797;DHT22;9526;52.612;13.300;2022-07-29T07:09:10;19.10;99.90
18797;DHT22;9526;52.612;13.300;2022-07-29T07:11:34;19.10;99.90
18797;DHT22;9526;52.612;13.300;2022-07-29T07:13:58;19.20;99.90
18797;DHT22;9526;52.612;13.300;2022-07-29T07:16:36;19.40;99.90
18797;DHT22;9526;52.612;13.300;2022-07-29T07:19:00;19.60;99.90
18797;DHT22;9526;52.612;13.300;2022-07-29T07:21:24;19.70;99.90
18797;DHT22;9526;52.612;13.300;2022-07-29T07:23:51;19.90;99.90
18797;DHT22;9526;52.612;13.300;2022-07-29T07:26:15;20.10;99.90
18797;DHT22;9526;52.612;13.300;2022-07-29T07:28:39;20.30;99.90
18797;DHT22;9526;52.612;13.300;2022-07-29T07:31:02;20.50;99.90
18797;DHT22;9526;52.612;13.300;2022-07-29T07:33:28;20.60;99.90
18797;DHT22;9526;52.612;13.300;2022-07-29T07:35:52;20.80;99.90
18797;DHT22;9526;52.612;13.300;2022-07-29T07:38:15;20.80;99.90
18797;DHT22;9526;52.612;13.300;2022-07-29T07:40:39;21.00;99.90
18797;DHT22;9526;52.612;13.300;2022-07-29T07:43:04;21.20;99.90
18797;DHT22;9526;52.612;13.300;2022-07-29T07:45:28;21.20;99.90
18797;DHT22;9526;52.612;13.300;2022-07-29T07:47:52;21.30;99.90
18797;DHT22;9526;52.612;13.300;2022-07-29T07:50:17;21.40;99.90
18797;DHT22;9526;52.612;13.300;2022-07-29T07:52:49;21.60;99.90
18797;DHT22;9526;52.612;13.300;2022-07-29T07:55:14;21.60;99.90
18797;DHT22;9526;52.612;13.300;2022-07-29T07:57:38;21.60;99.90
18797;DHT22;9526;52.612;13.300;2022-07-29T08:00:03;21.60;99.90
18797;DHT22;9526;52.612;13.300;2022-07-29T08:02:33;21.70;99.90
18797;DHT22;9526;52.612;13.300;2022-07-29T08:04:56;21.90;99.90
18797;DHT22;9526;52.612;13.300;2022-07-29T08:07:22;21.80;99.90
18797;DHT22;9526;52.612;13.300;2022-07-29T08:09:46;21.80;99.90
18797;DHT22;9526;52.612;13.300;2022-07-29T08:12:10;21.90;99.90
18797;DHT22;9526;52.612;13.300;2022-07-29T08:14:34;21.90;99.90
18797;DHT22;9526;52.612;13.300;2022-07-29T08:16:57;22.00;99.90
18797;DHT22;9526;52.612;13.300;2022-07-29T08:19:21;22.10;99.90
18797;DHT22;9526;52.612;13.300;2022-07-29T08:21:45;22.30;99.90
18797;DHT22;9526;52.612;13.300;2022-07-29T08:24:11;22.40;99.90
18797;DHT22;9526;52.612;13.300;2022-07-29T08:26:52;22.60;99.90
18797;DHT22;9526;52.612;13.300;2022-07-29T08:29:16;22.70;99.90
18797;DHT22;9526;52.612;13.300;2022-07-29T08:31:41;22.70;99.90
18797;DHT22;9526;52.612;13.300;2022-07-29T08:34:06;22.70;99.90
18797;DHT22;9526;52.612;13.300;2022-07-29T08:36:30;22.80;99.90
18797;DHT22;9526;52.612;13.300;2022-07-29T08:38:54;22.90;98.70
18797;DHT22;9526;52.612;13.300;2022-07-29T08:41:20;23.10;98.50
18797;DHT22;9526;52.612;13.300;2022-07-29T08:43:44;23.10;97.90
18797;DHT22;9526;52.612;13.300;2022-07-29T08:46:08;23.30;98.40
18797;DHT22;9526;52.612;13.300;2022-07-29T08:48:32;23.40;96.40
18797;DHT22;9526;52.612;13.300;2022-07-29T08:50:57;23.40;96.10
18797;DHT22;9526;52.612;13.300;2022-07-29T08:53:21;23.60;95.30
18797;DHT22;9526;52.612;13.300;2022-07-29T08:55:47;23.70;95.20
18797;DHT22;9526;52.612;13.300;2022-07-29T08:58:14;23.70;93.40
18797;DHT22;9526;52.612;13.300;2022-07-29T09:00:46;23.80;92.60
18797;DHT22;9526;52.612;13.300;2022-07-29T09:03:19;23.90;93.40
18797;DHT22;9526;52.612;13.300;2022-07-29T09:05:45;24.00;93.40
18797;DHT22;9526;52.612;13.300;2022-07-29T09:08:09;24.20;93.50
18797;DHT22;9526;52.612;13.300;2022-07-29T09:10:35;24.20;92.80
18797;DHT22;9526;52.612;13.300;2022-07-29T09:12:58;24.20;93.20
18797;DHT22;9526;52.612;13.300;2022-07-29T09:15:24;24.30;92.10
18797;DHT22;9526;52.612;13.300;2022-07-29T09:17:49;24.40;90.10
18797;DHT22;9526;52.612;13.300;2022-07-29T09:20:14;24.50;90.60
18797;DHT22;9526;52.612;13.300;2022-07-29T09:22:40;24.60;90.50
18797;DHT22;9526;52.612;13.300;2022-07-29T09:25:04;24.60;88.50
18797;DHT22;9526;52.612;13.300;2022-07-29T09:27:29;24.70;88.20
18797;DHT22;9526;52.612;13.300;2022-07-29T09:29:56;24.80;89.70
18797;DHT22;9526;52.612;13.300;2022-07-29T09:32:22;24.90;88.00
18797;DHT22;9526;52.612;13.300;2022-07-29T09:34:46;25.00;86.90
18797;DHT22;9526;52.612;13.300;2022-07-29T09:37:10;25.20;86.90
18797;DHT22;9526;52.612;13.300;2022-07-29T09:39:35;25.20;83.80
18797;DHT22;9526;52.612;13.300;2022-07-29T09:42:07;25.20;86.50
18797;DHT22;9526;52.612;13.300;2022-07-29T09:44:45;25.20;81.10
18797;DHT22;9526;52.612;13.300;2022-07-29T09:47:10;25.30;80.00
18797;DHT22;9526;52.612;13.300;2022-07-29T09:49:49;25.40;82.40
18797;DHT22;9526;52.612;13.300;2022-07-29T09:52:14;25.50;81.70
18797;DHT22;9526;52.612;13.300;2022-07-29T09:54:38;25.60;78.10
18797;DHT22;9526;52.612;13.300;2022-07-29T09:57:04;25.60;78.30
18797;DHT22;9526;52.612;13.300;2022-07-29T09:59:28;25.70;80.10
18797;DHT22;9526;52.612;13.300;2022-07-29T10:01:52;25.80;80.90
18797;DHT22;9526;52.612;13.300;2022-07-29T10:04:16;26.10;84.20
18797;DHT22;9526;52.612;13.300;2022-07-29T10:06:58;26.20;78.40
18797;DHT22;9526;52.612;13.300;2022-07-29T10:09:26;26.20;78.30
18797;DHT22;9526;52.612;13.300;2022-07-29T10:12:06;26.30;71.80
18797;DHT22;9526;52.612;13.300;2022-07-29T10:14:33;26.20;70.50
18797;DHT22;9526;52.612;13.300;2022-07-29T10:16:57;26.20;70.20
18797;DHT22;9526;52.612;13.300;2022-07-29T10:19:23;26.40;72.40
18797;DHT22;9526;52.612;13.300;2022-07-29T10:21:48;26.40;70.60
18797;DHT22;9526;52.612;13.300;2022-07-29T10:24:20;26.40;72.40
18797;DHT22;9526;52.612;13.300;2022-07-29T10:26:44;26.70;74.20
18797;DHT22;9526;52.612;13.300;2022-07-29T10:29:09;26.90;73.50
18797;DHT22;9526;52.612;13.300;2022-07-29T10:31:44;27.00;75.10
18797;DHT22;9526;52.612;13.300;2022-07-29T10:34:17;27.10;71.20
18797;DHT22;9526;52.612;13.300;2022-07-29T10:36:53;26.90;73.40
18797;DHT22;9526;52.612;13.300;2022-07-29T10:39:32;27.10;72.40
18797;DHT22;9526;52.612;13.300;2022-07-29T10:42:15;27.10;72.00
18797;DHT22;9526;52.612;13.300;2022-07-29T10:44:54;26.90;71.60
18797;DHT22;9526;52.612;13.300;2022-07-29T10:47:22;26.90;70.80
18797;DHT22;9526;52.612;13.300;2022-07-29T10:49:56;26.80;70.30
18797;DHT22;9526;52.612;13.300;2022-07-29T10:52:22;26.70;72.00
18797;DHT22;9526;52.612;13.300;2022-07-29T10:54:52;26.80;72.40
18797;DHT22;9526;52.612;13.300;2022-07-29T10:57:20;26.70;68.20
18797;DHT22;9526;52.612;13.300;2022-07-29T11:00:26;26.70;69.70
18797;DHT22;9526;52.612;13.300;2022-07-29T11:02:51;26.70;68.90
18797;DHT22;9526;52.612;13.300;2022-07-29T11:05:18;26.90;71.80
18797;DHT22;9526;52.612;13.300;2022-07-29T11:10:53;27.10;66.00
18797;DHT22;9526;52.612;13.300;2022-07-29T11:13:59;27.40;67.60
18797;DHT22;9526;52.612;13.300;2022-07-29T11:16:23;27.50;64.80
18797;DHT22;9526;52.612;13.300;2022-07-29T11:19:20;27.70;70.40
18797;DHT22;9526;52.612;13.300;2022-07-29T11:21:51;27.90;67.30
18797;DHT22;9526;52.612;13.300;2022-07-29T11:24:21;27.70;65.60
18797;DHT22;9526;52.612;13.300;2022-07-29T11:27:14;27.70;65.30
18797;DHT22;9526;52.612;13.300;2022-07-29T11:29:50;28.10;67.70
18797;DHT22;9526;52.612;13.300;2022-07-29T11:32:15;27.70;65.60
18797;DHT22;9526;52.612;13.300;2022-07-29T11:34:44;27.70;65.10
18797;DHT22;9526;52.612;13.300;2022-07-29T11:37:21;27.70;64.50
18797;DHT22;9526;52.612;13.300;2022-07-29T11:40:08;27.80;66.40
18797;DHT22;9526;52.612;13.300;2022-07-29T11:42:48;28.00;65.80
18797;DHT22;9526;52.612;13.300;2022-07-29T11:45:24;28.40;67.60
18797;DHT22;9526;52.612;13.300;2022-07-29T11:48:05;28.10;62.90
18797;DHT22;9526;52.612;13.300;2022-07-29T11:50:51;28.50;67.70
18797;DHT22;9526;52.612;13.300;2022-07-29T11:53:15;28.80;65.70
18797;DHT22;9526;52.612;13.300;2022-07-29T11:55:39;28.90;63.60
18797;DHT22;9526;52.612;13.300;2022-07-29T11:58:14;28.70;62.90
18797;DHT22;9526;52.612;13.300;2022-07-29T12:00:40;28.40;63.70
18797;DHT22;9526;52.612;13.300;2022-07-29T12:03:05;28.40;66.50
18797;DHT22;9526;52.612;13.300;2022-07-29T12:05:35;28.50;64.30
18797;DHT22;9526;52.612;13.300;2022-07-29T12:08:15;28.40;63.10
18797;DHT22;9526;52.612;13.300;2022-07-29T12:10:42;28.10;64.10
18797;DHT22;9526;52.612;13.300;2022-07-29T12:13:06;28.20;65.00
18797;DHT22;9526;52.612;13.300;2022-07-29T12:15:32;28.50;65.80
18797;DHT22;9526;52.612;13.300;2022-07-29T12:18:11;28.70;65.10
18797;DHT22;9526;52.612;13.300;2022-07-29T12:20:39;28.90;64.70
18797;DHT22;9526;52.612;13.300;2022-07-29T12:23:06;29.00;63.40
18797;DHT22;9526;52.612;13.300;2022-07-29T12:25:33;28.90;63.30
18797;DHT22;9526;52.612;13.300;2022-07-29T12:27:59;29.20;66.80
18797;DHT22;9526;52.612;13.300;2022-07-29T12:30:36;29.10;66.70
18797;DHT22;9526;52.612;13.300;2022-07-29T12:33:10;29.50;63.00
18797;DHT22;9526;52.612;13.300;2022-07-29T12:35:35;29.20;66.60
18797;DHT22;9526;52.612;13.300;2022-07-29T12:37:59;29.70;67.10
18797;DHT22;9526;52.612;13.300;2022-07-29T12:40:23;29.40;64.40
18797;DHT22;9526;52.612;13.300;2022-07-29T12:43:05;29.50;66.20
18797;DHT22;9526;52.612;13.300;2022-07-29T12:45:33;30.00;64.70
18797;DHT22;9526;52.612;13.300;2022-07-29T12:47:58;30.10;64.30
18797;DHT22;9526;52.612;13.300;2022-07-29T12:50:22;30.20;65.20
18797;DHT22;9526;52.612;13.300;2022-07-29T12:52:47;30.20;63.90
18797;DHT22;9526;52.612;13.300;2022-07-29T12:55:11;29.90;64.60
18797;DHT22;9526;52.612;13.300;2022-07-29T12:57:45;30.20;66.80
18797;DHT22;9526;52.612;13.300;2022-07-29T13:00:11;29.90;64.80
18797;DHT22;9526;52.612;13.300;2022-07-29T13:02:36;29.80;66.00
18797;DHT22;9526;52.612;13.300;2022-07-29T13:05:03;29.70;65.60
18797;DHT22;9526;52.612;13.300;2022-07-29T13:07:29;29.80;66.50
18797;DHT22;9526;52.612;13.300;2022-07-29T13:10:15;30.30;68.40
18797;DHT22;9526;52.612;13.300;2022-07-29T13:13:05;30.80;71.80
18797;DHT22;9526;52.612;13.300;2022-07-29T13:15:32;30.90;66.70
18797;DHT22;9526;52.612;13.300;2022-07-29T13:17:56;31.30;68.40
18797;DHT22;9526;52.612;13.300;2022-07-29T13:20:24;31.20;62.80
18797;DHT22;9526;52.612;13.300;2022-07-29T13:22:49;31.20;63.20
18797;DHT22;9526;52.612;13.300;2022-07-29T13:25:13;31.40;63.00
18797;DHT22;9526;52.612;13.300;2022-07-29T13:27:38;31.30;62.50
18797;DHT22;9526;52.612;13.300;2022-07-29T13:30:05;31.40;63.80
18797;DHT22;9526;52.612;13.300;2022-07-29T13:32:30;31.80;64.90
18797;DHT22;9526;52.612;13.300;2022-07-29T13:34:56;31.70;61.60
18797;DHT22;9526;52.612;13.300;2022-07-29T13:37:28;32.00;64.20
18797;DHT22;9526;52.612;13.300;2022-07-29T13:39:52;32.40;61.90
18797;DHT22;9526;52.612;13.300;2022-07-29T13:42:18;31.90;60.60
18797;DHT22;9526;52.612;13.300;2022-07-29T13:44:41;31.80;63.80
18797;DHT22;9526;52.612;13.300;2022-07-29T13:47:06;31.80;64.70
18797;DHT22;9526;52.612;13.300;2022-07-29T13:49:30;31.70;64.10
18797;DHT22;9526;52.612;13.300;2022-07-29T13:51:54;31.60;63.30
18797;DHT22;9526;52.612;13.300;2022-07-29T13:54:19;31.10;61.50
18797;DHT22;9526;52.612;13.300;2022-07-29T13:56:43;30.70;63.10
18797;DHT22;9526;52.612;13.300;2022-07-29T13:59:07;31.00;64.00
18797;DHT22;9526;52.612;13.300;2022-07-29T14:01:33;31.00;63.50
18797;DHT22;9526;52.612;13.300;2022-07-29T14:03:57;31.20;64.50
18797;DHT22;9526;52.612;13.300;2022-07-29T14:06:21;30.80;63.30
18797;DHT22;9526;52.612;13.300;2022-07-29T14:08:46;30.90;62.90
18797;DHT22;9526;52.612;13.300;2022-07-29T14:11:11;31.00;63.10
18797;DHT22;9526;52.612;13.300;2022-07-29T14:13:35;30.90;62.70
18797;DHT22;9526;52.612;13.300;2022-07-29T14:15:59;30.90;61.40
18797;DHT22;9526;52.612;13.300;2022-07-29T14:18:23;30.90;64.70
18797;DHT22;9526;52.612;13.300;2022-07-29T14:20:47;30.50;61.90
18797;DHT22;9526;52.612;13.300;2022-07-29T14:23:11;30.80;62.00
18797;DHT22;9526;52.612;13.300;2022-07-29T14:25:37;30.70;64.80
18797;DHT22;9526;52.612;13.300;2022-07-29T14:28:04;30.50;59.70
18797;DHT22;9526;52.612;13.300;2022-07-29T14:30:29;30.30;62.20
18797;DHT22;9526;52.612;13.300;2022-07-29T14:32:52;30.50;64.40
18797;DHT22;9526;52.612;13.300;2022-07-29T14:35:16;30.80;66.00
18797;DHT22;9526;52.612;13.300;2022-07-29T14:37:40;30.90;63.30
18797;DHT22;9526;52.612;13.300;2022-07-29T14:40:05;31.00;62.70
18797;DHT22;9526;52.612;13.300;2022-07-29T14:42:29;31.30;66.40
18797;DHT22;9526;52.612;13.300;2022-07-29T14:44:55;31.30;64.00
18797;DHT22;9526;52.612;13.300;2022-07-29T14:47:18;31.40;63.70
18797;DHT22;9526;52.612;13.300;2022-07-29T14:49:43;31.40;62.60
18797;DHT22;9526;52.612;13.300;2022-07-29T14:52:07;31.30;62.00
18797;DHT22;9526;52.612;13.300;2022-07-29T14:54:31;31.40;62.70
18797;DHT22;9526;52.612;13.300;2022-07-29T14:56:55;31.50;59.60
18797;DHT22;9526;52.612;13.300;2022-07-29T14:59:19;31.00;59.70
18797;DHT22;9526;52.612;13.300;2022-07-29T15:01:44;30.90;61.10
18797;DHT22;9526;52.612;13.300;2022-07-29T15:04:08;30.90;62.30
18797;DHT22;9526;52.612;13.300;2022-07-29T15:06:32;30.40;61.70
18797;DHT22;9526;52.612;13.300;2022-07-29T15:08:56;30.10;61.30
18797;DHT22;9526;52.612;13.300;2022-07-29T15:11:19;29.50;64.00
18797;DHT22;9526;52.612;13.300;2022-07-29T15:13:43;29.50;63.40
18797;DHT22;9526;52.612;13.300;2022-07-29T15:16:07;29.30;63.30
18797;DHT22;9526;52.612;13.300;2022-07-29T15:18:33;29.60;64.70
18797;DHT22;9526;52.612;13.300;2022-07-29T15:20:57;29.80;64.60
18797;DHT22;9526;52.612;13.300;2022-07-29T15:23:22;29.90;63.00
18797;DHT22;9526;52.612;13.300;2022-07-29T15:25:46;29.90;63.00
18797;DHT22;9526;52.612;13.300;2022-07-29T15:28:10;30.00;66.00
18797;DHT22;9526;52.612;13.300;2022-07-29T15:30:34;30.00;64.00
18797;DHT22;9526;52.612;13.300;2022-07-29T15:33:03;30.00;60.60